createdAt,value
2022-09-20T00:02:06.426Z,0.50
2022-09-20T00:04:35.892Z,0.43
2022-09-20T00:07:03.969Z,0.50
2022-09-20T00:09:32.160Z,0.60
2022-09-20T00:12:00.264Z,0.55
2022-09-20T00:14:28.522Z,0.30
2022-09-20T00:16:56.543Z,0.50
2022-09-20T00:19:25.344Z,0.50
2022-09-20T00:21:54.717Z,0.43
2022-09-20T00:24:22.735Z,0.40
2022-09-20T00:26:51.732Z,0.60
2022-09-20T00:29:19.693Z,0.47
2022-09-20T00:31:47.818Z,0.82
2022-09-20T00:34:33.572Z,0.50
2022-09-20T00:37:02.959Z,0.38
2022-09-20T00:39:31.270Z,0.40
2022-09-20T00:41:59.364Z,0.47
2022-09-20T00:44:44.567Z,0.50
2022-09-20T00:47:22.894Z,0.55
2022-09-20T00:49:53.329Z,0.60
2022-09-20T00:52:22.905Z,0.50
2022-09-20T00:54:50.935Z,0.30
2022-09-20T00:57:18.931Z,0.50
2022-09-20T00:59:48.078Z,0.30
2022-09-20T01:02:18.220Z,0.60
2022-09-20T01:04:46.386Z,0.38
2022-09-20T01:07:16.725Z,0.40
2022-09-20T01:09:46.035Z,0.30
2022-09-20T01:12:17.470Z,0.40
2022-09-20T01:14:47.336Z,0.40
2022-09-20T01:17:15.659Z,0.45
2022-09-20T01:19:50.239Z,0.35
2022-09-20T01:22:23.429Z,0.32
2022-09-20T01:24:57.517Z,0.60
2022-09-20T01:27:38.414Z,0.47
2022-09-20T01:30:08.467Z,0.50
2022-09-20T01:32:59.422Z,0.70
2022-09-20T01:35:29.047Z,0.40
2022-09-20T01:38:21.299Z,0.40
2022-09-20T01:40:57.908Z,0.45
2022-09-20T01:43:31.129Z,0.50
2022-09-20T01:46:00.228Z,0.35
2022-09-20T01:48:35.278Z,0.40
2022-09-20T01:51:23.806Z,0.47
2022-09-20T01:54:14.357Z,0.40
2022-09-20T01:57:25.058Z,0.60
2022-09-20T02:00:07.363Z,0.47
2022-09-20T02:03:07.401Z,0.98
2022-09-20T02:05:44.760Z,0.50
2022-09-20T02:08:31.673Z,0.50
2022-09-20T02:11:08.358Z,0.32
2022-09-20T02:13:47.947Z,0.40
2022-09-20T02:16:32.563Z,0.43
2022-09-20T02:19:17.010Z,0.40
2022-09-20T02:21:50.559Z,0.50
2022-09-20T02:24:24.491Z,0.50
2022-09-20T02:27:03.947Z,0.45
2022-09-20T02:29:36.903Z,0.55
2022-09-20T02:34:50.650Z,0.30
2022-09-20T02:37:45.314Z,0.50
2022-09-20T02:40:21.835Z,0.52
2022-09-20T02:42:58.004Z,0.60
2022-09-20T02:45:31.585Z,0.40
2022-09-20T02:48:04.862Z,0.57
2022-09-20T02:50:39.486Z,0.30
2022-09-20T02:53:17.151Z,0.20
2022-09-20T02:55:49.014Z,0.35
2022-09-20T02:58:28.182Z,0.47
2022-09-20T03:01:02.191Z,0.20
2022-09-20T03:03:40.243Z,0.35
2022-09-20T03:06:12.510Z,0.32
2022-09-20T03:08:46.821Z,0.30
2022-09-20T03:11:20.832Z,0.50
2022-09-20T03:13:58.465Z,0.50
2022-09-20T03:16:35.670Z,0.80
2022-09-20T03:19:14.435Z,0.40
2022-09-20T03:21:53.839Z,0.50
2022-09-20T03:24:34.463Z,0.30
2022-09-20T03:27:08.615Z,0.25
2022-09-20T03:29:47.313Z,0.40
2022-09-20T03:32:27.700Z,0.20
2022-09-20T03:35:06.342Z,0.38
2022-09-20T03:37:45.349Z,0.50
2022-09-20T03:40:49.563Z,0.40
2022-09-20T03:43:25.832Z,0.30
2022-09-20T03:46:02.338Z,0.30
2022-09-20T03:48:57.853Z,0.30
2022-09-20T03:51:34.161Z,0.43
2022-09-20T03:54:20.166Z,0.68
2022-09-20T03:57:00.940Z,0.25
2022-09-20T03:59:54.168Z,0.30
2022-09-20T04:02:34.032Z,0.55
2022-09-20T04:05:04.864Z,0.40
2022-09-20T04:07:40.344Z,0.30
2022-09-20T04:10:37.460Z,0.38
2022-09-20T04:13:17.118Z,0.40
2022-09-20T04:15:51.180Z,0.32
2022-09-20T04:18:24.666Z,0.30
2022-09-20T04:20:57.970Z,0.20
2022-09-20T04:23:34.628Z,0.40
2022-09-20T04:26:03.550Z,0.30
2022-09-20T04:28:35.942Z,0.63
2022-09-20T04:31:07.499Z,0.40
2022-09-20T04:33:38.219Z,0.50
2022-09-20T04:36:29.012Z,0.38
2022-09-20T04:39:06.161Z,0.45
2022-09-20T04:41:55.827Z,0.30
2022-09-20T04:44:36.332Z,0.50
2022-09-20T04:47:37.718Z,0.32
2022-09-20T04:50:24.341Z,0.30
2022-09-20T04:53:34.243Z,0.50
2022-09-20T04:56:04.460Z,0.30
2022-09-20T04:58:48.038Z,0.40
2022-09-20T05:01:51.975Z,0.50
2022-09-20T05:05:20.059Z,0.55
2022-09-20T05:08:41.053Z,0.65
2022-09-20T05:11:27.664Z,0.70
2022-09-20T05:14:17.098Z,1.40
2022-09-20T05:17:01.919Z,1.08
2022-09-20T05:19:33.442Z,1.20
2022-09-20T05:22:10.462Z,1.58
2022-09-20T05:24:57.562Z,1.10
2022-09-20T05:27:40.648Z,1.00
2022-09-20T05:30:16.565Z,1.00
2022-09-20T05:32:48.446Z,0.95
2022-09-20T05:35:22.180Z,1.08
2022-09-20T05:37:53.833Z,1.00
2022-09-20T05:40:29.054Z,1.10
2022-09-20T05:43:07.411Z,1.35
2022-09-20T05:45:48.931Z,0.70
2022-09-20T05:48:24.557Z,0.60
2022-09-20T05:50:59.530Z,0.60
2022-09-20T05:54:14.364Z,0.50
2022-09-20T05:56:47.360Z,0.73
2022-09-20T05:59:31.359Z,0.90
2022-09-20T06:02:08.253Z,0.95
2022-09-20T06:04:42.789Z,0.90
2022-09-20T06:07:21.672Z,0.63
2022-09-20T06:10:07.627Z,0.98
2022-09-20T06:12:41.760Z,0.95
2022-09-20T06:15:19.109Z,0.80
2022-09-20T06:17:54.323Z,0.88
2022-09-20T06:20:26.973Z,0.90
2022-09-20T06:22:56.899Z,0.80
2022-09-20T06:25:27.763Z,0.90
2022-09-20T06:27:58.822Z,0.80
2022-09-20T06:30:31.387Z,0.60
2022-09-20T06:33:00.767Z,0.88
2022-09-20T06:35:34.730Z,0.80
2022-09-20T06:38:31.760Z,0.70
2022-09-20T06:41:17.169Z,0.52
2022-09-20T06:43:45.515Z,0.50
2022-09-20T06:46:15.734Z,0.40
2022-09-20T06:48:43.644Z,0.30
2022-09-20T06:51:12.466Z,0.40
2022-09-20T06:53:42.137Z,0.70
2022-09-20T06:56:11.078Z,0.55
2022-09-20T06:58:38.940Z,0.70
2022-09-20T07:01:06.943Z,0.55
2022-09-20T07:03:36.152Z,0.70
2022-09-20T07:06:04.401Z,0.77
2022-09-20T07:08:32.277Z,0.82
2022-09-20T07:11:04.886Z,0.75
2022-09-20T07:13:32.770Z,0.50
2022-09-20T07:16:04.696Z,0.68
2022-09-20T07:18:35.300Z,0.47
2022-09-20T07:21:06.223Z,0.50
2022-09-20T07:23:34.091Z,0.50
2022-09-20T07:26:01.950Z,0.20
2022-09-20T07:28:30.890Z,0.28
2022-09-20T07:30:59.283Z,0.40
2022-09-20T07:33:27.126Z,0.50
2022-09-20T07:35:55.939Z,0.45
2022-09-20T07:38:25.316Z,0.60
2022-09-20T07:40:57.602Z,0.60
2022-09-20T07:43:25.760Z,0.55
2022-09-20T07:45:56.001Z,0.50
2022-09-20T07:48:25.859Z,0.35
2022-09-20T07:50:55.141Z,0.60
2022-09-20T07:53:23.593Z,0.35
2022-09-20T07:56:00.112Z,0.40
2022-09-20T07:58:28.229Z,0.60
2022-09-20T08:00:56.654Z,0.43
2022-09-20T08:03:24.838Z,0.52
2022-09-20T08:05:53.922Z,0.47
2022-09-20T08:08:21.925Z,0.47
2022-09-20T08:10:49.989Z,0.47
2022-09-20T08:16:10.341Z,0.45
2022-09-20T08:18:39.014Z,0.50
2022-09-20T08:21:07.928Z,0.80
2022-09-20T08:23:36.304Z,0.40
2022-09-20T08:26:04.516Z,0.65
2022-09-20T08:28:34.191Z,0.45
2022-09-20T08:31:03.248Z,0.63
2022-09-20T08:33:31.369Z,0.45
2022-09-20T08:35:59.455Z,0.60
2022-09-20T08:41:17.168Z,0.55
2022-09-20T08:43:50.274Z,0.63
2022-09-20T08:46:23.360Z,0.40
2022-09-20T08:48:52.216Z,0.50
2022-09-20T08:51:23.133Z,0.90
2022-09-20T08:53:52.569Z,0.50
2022-09-20T08:56:21.376Z,0.50
2022-09-20T08:58:50.597Z,0.40
2022-09-20T09:01:22.910Z,0.50
2022-09-20T09:03:52.436Z,0.70
2022-09-20T09:06:21.533Z,0.50
2022-09-20T09:08:53.350Z,0.40
2022-09-20T09:11:23.451Z,0.73
2022-09-20T09:13:55.407Z,0.70
2022-09-20T09:16:31.848Z,0.55
2022-09-20T09:19:33.266Z,0.60
2022-09-20T09:22:03.070Z,0.80
2022-09-20T09:24:32.066Z,0.75
2022-09-20T09:27:09.712Z,0.50
2022-09-20T09:29:51.715Z,0.50
2022-09-20T09:32:25.186Z,0.40
2022-09-20T09:34:53.081Z,1.23
2022-09-20T09:37:28.892Z,1.02
2022-09-20T09:40:16.423Z,0.50
2022-09-20T09:42:52.262Z,0.57
2022-09-20T09:45:34.732Z,0.88
2022-09-20T09:48:05.026Z,0.40
2022-09-20T09:50:35.041Z,0.45
2022-09-20T09:53:07.266Z,0.50
2022-09-20T09:55:54.406Z,0.40
2022-09-20T09:58:32.209Z,0.50
2022-09-20T10:01:02.385Z,0.70
2022-09-20T10:03:44.992Z,0.40
2022-09-20T10:06:19.006Z,0.30
2022-09-20T10:09:05.527Z,0.40
2022-09-20T10:11:44.353Z,0.22
2022-09-20T10:14:23.216Z,0.40
2022-09-20T10:17:12.197Z,0.50
2022-09-20T10:20:04.585Z,0.82
2022-09-20T10:22:38.424Z,0.60
2022-09-20T10:25:15.085Z,0.50
2022-09-20T10:27:52.309Z,0.35
2022-09-20T10:30:22.230Z,0.30
2022-09-20T10:33:02.156Z,0.40
2022-09-20T10:35:35.917Z,0.77
2022-09-20T10:38:14.501Z,0.40
2022-09-20T10:41:07.705Z,0.30
2022-09-20T10:43:46.847Z,0.60
2022-09-20T10:46:31.767Z,0.32
2022-09-20T10:49:05.780Z,0.60
2022-09-20T10:51:44.555Z,0.45
2022-09-20T10:54:24.222Z,0.45
2022-09-20T10:56:53.526Z,0.50
2022-09-20T10:59:34.501Z,0.70
2022-09-20T11:02:23.309Z,0.60
2022-09-20T11:05:06.209Z,0.50
2022-09-20T11:07:42.842Z,0.40
2022-09-20T11:10:16.478Z,0.35
2022-09-20T11:12:47.322Z,0.75
2022-09-20T11:15:18.830Z,0.60
2022-09-20T11:17:50.714Z,0.75
2022-09-20T11:20:23.488Z,1.13
2022-09-20T11:25:26.067Z,0.75
2022-09-20T11:27:58.828Z,0.35
2022-09-20T11:30:28.289Z,0.63
2022-09-20T11:33:00.852Z,0.45
2022-09-20T11:35:34.566Z,0.30
2022-09-20T11:38:11.299Z,0.80
2022-09-20T11:40:43.917Z,0.50
2022-09-20T11:43:12.342Z,0.52
2022-09-20T11:45:43.085Z,0.70
2022-09-20T11:48:15.498Z,0.40
2022-09-20T11:51:09.822Z,0.70
2022-09-20T11:53:47.469Z,0.43
2022-09-20T11:56:19.033Z,1.00
2022-09-20T11:58:48.276Z,0.73
2022-09-20T12:01:17.598Z,0.50
2022-09-20T12:03:46.306Z,0.40
2022-09-20T12:06:27.620Z,0.52
2022-09-20T12:08:57.174Z,0.60
2022-09-20T12:11:31.550Z,0.75
2022-09-20T12:14:05.044Z,0.40
2022-09-20T12:16:41.345Z,0.60
2022-09-20T12:19:12.254Z,0.63
2022-09-20T12:22:18.100Z,1.00
2022-09-20T12:24:45.950Z,0.40
2022-09-20T12:27:50.234Z,0.47
2022-09-20T12:30:20.428Z,0.75
2022-09-20T12:33:01.112Z,0.80
2022-09-20T12:36:02.359Z,0.50
2022-09-20T12:38:42.062Z,0.63
2022-09-20T12:41:13.007Z,0.52
2022-09-20T12:43:56.630Z,0.60
2022-09-20T12:46:29.152Z,0.50
2022-09-20T12:49:40.079Z,0.50
2022-09-20T12:52:39.595Z,0.60
2022-09-20T12:55:11.225Z,0.75
2022-09-20T12:57:39.410Z,0.80
2022-09-20T13:00:09.638Z,0.63
2022-09-20T13:02:57.120Z,0.57
2022-09-20T13:05:33.501Z,0.68
2022-09-20T13:08:03.821Z,0.80
2022-09-20T13:10:35.955Z,0.70
2022-09-20T13:13:12.268Z,0.35
2022-09-20T13:15:40.732Z,0.40
2022-09-20T13:18:12.806Z,0.30
2022-09-20T13:20:42.887Z,0.30
2022-09-20T13:23:19.420Z,0.30
2022-09-20T13:25:49.710Z,0.50
2022-09-20T13:28:27.260Z,0.47
2022-09-20T13:31:23.938Z,0.60
2022-09-20T13:33:52.065Z,0.52
2022-09-20T13:36:26.147Z,0.30
2022-09-20T13:38:55.640Z,0.57
2022-09-20T13:41:27.815Z,0.50
2022-09-20T13:43:56.521Z,0.50
2022-09-20T13:46:26.424Z,0.50
2022-09-20T13:49:00.485Z,0.57
2022-09-20T13:51:29.674Z,0.60
2022-09-20T13:54:22.434Z,0.30
2022-09-20T13:56:52.178Z,0.30
2022-09-20T13:59:20.542Z,0.40
2022-09-20T14:01:52.719Z,0.40
2022-09-20T14:04:23.428Z,0.20
2022-09-20T14:06:52.573Z,0.35
2022-09-20T14:09:26.067Z,0.50
2022-09-20T14:11:56.007Z,0.40
2022-09-20T14:14:25.293Z,0.30
2022-09-20T14:16:54.776Z,0.22
2022-09-20T14:19:26.374Z,0.10
2022-09-20T14:21:54.637Z,0.57
2022-09-20T14:24:31.858Z,0.45
2022-09-20T14:27:16.421Z,0.32
2022-09-20T14:29:45.773Z,0.50
2022-09-20T14:32:27.005Z,0.20
2022-09-20T14:35:02.026Z,0.30
2022-09-20T14:37:31.891Z,0.28
2022-09-20T14:40:01.018Z,0.20
2022-09-20T14:42:32.745Z,0.25
2022-09-20T14:45:00.829Z,0.28
2022-09-20T14:47:29.710Z,0.30
2022-09-20T14:49:58.999Z,0.30
2022-09-20T14:52:43.661Z,0.28
2022-09-20T14:55:28.214Z,0.25
2022-09-20T14:58:02.181Z,0.25
2022-09-20T15:00:30.827Z,0.30
2022-09-20T15:03:14.850Z,0.30
2022-09-20T15:05:43.884Z,0.20
2022-09-20T15:08:13.185Z,0.10
2022-09-20T15:10:41.092Z,0.40
2022-09-20T15:13:12.131Z,0.20
2022-09-20T15:15:40.062Z,0.20
2022-09-20T15:18:19.471Z,0.20
2022-09-20T15:20:47.430Z,0.40
2022-09-20T15:23:15.371Z,0.43
2022-09-20T15:25:43.266Z,0.30
2022-09-20T15:28:16.648Z,0.40
2022-09-20T15:30:44.994Z,0.30
2022-09-20T15:33:13.641Z,0.32
2022-09-20T15:35:42.420Z,0.50
2022-09-20T15:38:11.790Z,0.20
2022-09-20T15:40:40.748Z,0.35
2022-09-20T15:43:09.679Z,0.30
2022-09-20T15:45:50.079Z,0.20
2022-09-20T15:48:20.109Z,0.35
2022-09-20T15:51:01.936Z,0.30
2022-09-20T15:53:34.191Z,0.27
2022-09-20T15:56:04.030Z,0.60
2022-09-20T15:58:36.251Z,0.30
2022-09-20T16:01:07.984Z,0.35
2022-09-20T16:03:37.046Z,0.50
2022-09-20T16:06:07.025Z,0.40
2022-09-20T16:08:35.803Z,0.40
2022-09-20T16:11:04.852Z,0.68
2022-09-20T16:13:32.748Z,0.35
2022-09-20T16:16:02.776Z,0.57
2022-09-20T16:18:49.973Z,0.47
2022-09-20T16:21:19.094Z,0.40
2022-09-20T16:23:52.961Z,0.60
2022-09-20T16:26:22.397Z,0.40
2022-09-20T16:28:50.256Z,0.57
2022-09-20T16:31:34.623Z,0.35
2022-09-20T16:34:05.298Z,0.50
2022-09-20T16:36:33.606Z,0.52
2022-09-20T16:39:03.139Z,0.68
2022-09-20T16:41:32.340Z,0.63
2022-09-20T16:44:00.147Z,0.70
2022-09-20T16:46:28.225Z,0.60
2022-09-20T16:48:56.856Z,0.52
2022-09-20T16:51:27.113Z,0.47
2022-09-20T16:53:55.702Z,0.65
2022-09-20T16:56:25.286Z,0.40
2022-09-20T16:58:53.710Z,0.60
2022-09-20T17:01:21.666Z,0.70
2022-09-20T17:03:49.988Z,0.60
2022-09-20T17:06:18.962Z,0.70
2022-09-20T17:08:48.672Z,0.55
2022-09-20T17:11:18.787Z,0.63
2022-09-20T17:13:47.215Z,0.77
2022-09-20T17:16:16.851Z,0.70
2022-09-20T17:18:44.959Z,0.65
2022-09-20T17:21:14.729Z,0.82
2022-09-20T17:23:45.537Z,0.57
2022-09-20T17:26:19.983Z,0.75
2022-09-20T17:28:49.281Z,1.10
2022-09-20T17:31:20.244Z,0.70
2022-09-20T17:33:48.238Z,0.80
2022-09-20T17:36:18.468Z,0.65
2022-09-20T17:38:47.277Z,0.68
2022-09-20T17:41:16.848Z,0.57
2022-09-20T17:43:47.046Z,0.60
2022-09-20T17:46:17.570Z,0.60
2022-09-20T17:48:48.950Z,0.70
2022-09-20T17:51:18.085Z,0.77
2022-09-20T17:53:46.230Z,0.80
2022-09-20T17:56:15.647Z,1.10
2022-09-20T17:58:44.144Z,1.17
2022-09-20T18:01:15.227Z,1.00
2022-09-20T18:03:44.995Z,1.25
2022-09-20T18:06:15.028Z,1.60
2022-09-20T18:08:43.482Z,1.10
2022-09-20T18:11:11.774Z,1.05
2022-09-20T18:13:39.573Z,1.08
2022-09-20T18:16:10.940Z,1.27
2022-09-20T18:18:41.797Z,0.90
2022-09-20T18:21:16.185Z,0.88
2022-09-20T18:23:45.299Z,1.00
2022-09-20T18:26:23.057Z,0.80
2022-09-20T18:28:58.580Z,0.88
2022-09-20T18:31:29.914Z,1.20
2022-09-20T18:34:00.726Z,1.00
2022-09-20T18:36:29.438Z,0.98
2022-09-20T18:38:58.446Z,1.10
2022-09-20T18:41:28.449Z,1.10
2022-09-20T18:43:56.992Z,1.17
2022-09-20T18:46:27.029Z,1.30
2022-09-20T18:48:56.946Z,1.27
2022-09-20T18:51:28.664Z,1.13
2022-09-20T18:53:57.198Z,1.20
2022-09-20T18:56:27.123Z,1.42
2022-09-20T18:58:56.274Z,1.35
2022-09-20T19:01:53.680Z,1.38
2022-09-20T19:04:55.093Z,1.20
2022-09-20T19:07:31.269Z,1.38
2022-09-20T19:10:02.931Z,1.20
2022-09-20T19:12:35.238Z,1.55
2022-09-20T19:15:13.001Z,1.40
2022-09-20T19:17:50.584Z,1.63
2022-09-20T19:20:22.881Z,1.60
2022-09-20T19:23:01.478Z,1.80
2022-09-20T19:25:34.103Z,2.13
2022-09-20T19:28:02.551Z,1.60
2022-09-20T19:30:31.036Z,2.60
2022-09-20T19:32:59.502Z,2.10
2022-09-20T19:35:38.154Z,2.92
2022-09-20T19:38:15.378Z,4.70
2022-09-20T19:40:46.688Z,3.03
2022-09-20T19:43:36.778Z,2.63
2022-09-20T19:46:14.117Z,2.38
2022-09-20T19:48:48.315Z,2.22
2022-09-20T19:51:17.067Z,2.03
2022-09-20T19:53:47.010Z,2.15
2022-09-20T19:56:24.697Z,2.22
2022-09-20T19:58:54.968Z,2.20
2022-09-20T20:01:24.471Z,1.90
2022-09-20T20:03:53.506Z,1.85
2022-09-20T20:06:26.458Z,2.13
2022-09-20T20:09:00.024Z,1.90
2022-09-20T20:11:36.195Z,1.95
2022-09-20T20:14:12.454Z,2.10
2022-09-20T20:16:50.071Z,1.90
2022-09-20T20:19:46.389Z,2.08
2022-09-20T20:22:28.346Z,1.73
2022-09-20T20:24:58.508Z,2.00
2022-09-20T20:27:28.318Z,2.40
2022-09-20T20:29:56.403Z,2.13
2022-09-20T20:32:25.812Z,1.98
2022-09-20T20:34:53.643Z,2.20
2022-09-20T20:37:23.929Z,2.08
2022-09-20T20:39:52.143Z,2.10
2022-09-20T20:42:21.584Z,2.10
2022-09-20T20:44:49.575Z,2.20
2022-09-20T20:47:17.401Z,2.00
2022-09-20T20:49:47.515Z,1.70
2022-09-20T20:52:18.861Z,2.08
2022-09-20T20:54:46.718Z,2.10
2022-09-20T20:57:16.875Z,2.00
2022-09-20T20:59:46.103Z,1.95
2022-09-20T21:02:13.891Z,1.90
2022-09-20T21:04:42.344Z,1.88
2022-09-20T21:07:10.834Z,1.70
2022-09-20T21:09:39.680Z,1.85
2022-09-20T21:12:07.871Z,1.50
2022-09-20T21:14:35.686Z,1.90
2022-09-20T21:17:06.195Z,2.03
2022-09-20T21:19:34.100Z,1.70
2022-09-20T21:22:01.974Z,1.85
2022-09-20T21:24:29.935Z,1.90
2022-09-20T21:26:57.873Z,1.70
2022-09-20T21:29:25.673Z,1.80
2022-09-20T21:31:53.474Z,2.05
2022-09-20T21:34:22.734Z,1.88
2022-09-20T21:36:50.566Z,2.17
2022-09-20T21:39:18.387Z,2.03
2022-09-20T21:41:47.259Z,2.33
2022-09-20T21:44:15.136Z,2.45
2022-09-20T21:46:43.414Z,2.70
2022-09-20T21:49:12.483Z,2.55
2022-09-20T21:51:42.685Z,2.15
2022-09-20T21:54:11.013Z,2.10
2022-09-20T21:56:40.218Z,2.20
2022-09-20T21:59:08.137Z,1.85
2022-09-20T22:01:37.310Z,2.10
2022-09-20T22:04:06.508Z,2.00
2022-09-20T22:06:35.965Z,2.00
2022-09-20T22:09:07.106Z,1.90
2022-09-20T22:11:38.787Z,1.90
2022-09-20T22:14:07.863Z,1.85
2022-09-20T22:16:37.844Z,2.20
2022-09-20T22:19:06.943Z,1.80
2022-09-20T22:21:36.816Z,1.92
2022-09-20T22:24:07.821Z,1.98
2022-09-20T22:26:37.253Z,1.80
2022-09-20T22:29:06.372Z,1.95
2022-09-20T22:31:35.691Z,2.00
2022-09-20T22:34:05.791Z,2.22
2022-09-20T22:36:35.303Z,2.20
2022-09-20T22:39:03.649Z,1.92
2022-09-20T22:41:32.948Z,2.45
2022-09-20T22:44:01.453Z,2.20
2022-09-20T22:46:30.864Z,1.90
2022-09-20T22:48:58.818Z,2.17
2022-09-20T22:51:27.946Z,1.90
2022-09-20T22:53:56.117Z,2.00
2022-09-20T22:56:25.648Z,1.80
2022-09-20T22:58:56.734Z,1.70
2022-09-20T23:01:26.102Z,1.77
2022-09-20T23:03:56.050Z,1.88
2022-09-20T23:06:25.863Z,2.35
2022-09-20T23:08:55.642Z,1.80
2022-09-20T23:11:23.918Z,1.88
2022-09-20T23:13:56.390Z,1.63
2022-09-20T23:16:26.186Z,1.70
2022-09-20T23:18:55.140Z,1.83
2022-09-20T23:21:23.478Z,1.40
2022-09-20T23:23:54.121Z,1.75
2022-09-20T23:26:22.294Z,1.50
2022-09-20T23:28:55.342Z,1.50
2022-09-20T23:31:23.956Z,1.77
2022-09-20T23:33:53.880Z,1.80
2022-09-20T23:36:22.857Z,1.90
2022-09-20T23:38:51.317Z,1.75
2022-09-20T23:41:20.500Z,2.08
2022-09-20T23:43:48.784Z,1.63
2022-09-20T23:46:19.428Z,1.75
2022-09-20T23:48:47.500Z,1.80
2022-09-20T23:51:17.518Z,1.80
2022-09-20T23:53:45.579Z,1.80
2022-09-20T23:56:14.519Z,1.80
2022-09-20T23:58:43.888Z,1.85
